Time;durP1;ratioP1;P1;durP2;ratioP2;P2;SDS_P1;SDS_P2;PMS_P1;PMS_P2;Temp;Humidity;BMP_temperature;BMP_pressure;BME280_temperature;BME280_humidity;BME280_pressure;Samples;Min_cycle;Max_cycle;Signal;HPM_P1;HPM_P2
2021/03/10 00:08:57;;;;;;;30.47;15.10;;;3.60;99.90;;;;;;21170659;28;20024;-76
2021/03/10 00:18:58;;;;;;;32.50;15.00;;;3.30;99.90;;;;;;21169513;28;20032;-76
2021/03/10 00:28:59;;;;;;;29.27;14.87;;;3.10;99.90;;;;;;21150225;28;20032;-76
2021/03/10 00:39:00;;;;;;;32.15;14.57;;;2.90;99.90;;;;;;21167878;28;20284;-76
2021/03/10 00:49:01;;;;;;;31.65;14.15;;;2.60;99.90;;;;;;21148112;28;20439;-76
2021/03/10 00:59:01;;;;;;;31.58;15.50;;;2.40;99.90;;;;;;21166367;28;20084;-76
2021/03/10 01:09:05;;;;;;;31.75;14.68;;;2.00;99.90;;;;;;21165452;28;20058;-76
2021/03/10 01:19:07;;;;;;;32.15;15.57;;;2.00;99.90;;;;;;21164600;28;20173;-76
2021/03/10 01:29:07;;;;;;;32.13;15.77;;;1.80;99.90;;;;;;21145923;28;20035;-76
2021/03/10 01:39:08;;;;;;;35.17;16.20;;;1.40;99.90;;;;;;21144788;28;20043;-76
2021/03/10 01:49:09;;;;;;;;;;;1.20;99.90;;;;;;21162639;28;20072;-76
2021/03/10 01:59:11;;;;;;;27.42;13.77;;;1.10;99.90;;;;;;21161272;28;19908;-76
2021/03/10 02:09:25;;;;;;;41.00;15.32;;;1.30;99.90;;;;;;21160683;28;20088;-76
2021/03/10 02:19:49;;;;;;;35.00;14.95;;;1.40;99.90;;;;;;21160467;28;20042;-76
2021/03/10 02:29:50;;;;;;;35.30;16.27;;;1.30;99.90;;;;;;21159438;28;20032;-76
2021/03/10 02:39:51;;;;;;;32.03;15.40;;;1.10;99.90;;;;;;21158678;28;20138;-76
2021/03/10 02:49:55;;;;;;;36.47;15.85;;;1.50;99.90;;;;;;21139794;28;20134;-76
2021/03/10 02:59:57;;;;;;;33.08;14.85;;;1.60;99.90;;;;;;21139738;28;20027;-76
2021/03/10 03:10:01;;;;;;;30.40;14.95;;;1.60;99.90;;;;;;21125108;28;20035;-76
2021/03/10 03:20:05;;;;;;;30.75;14.48;;;1.70;99.90;;;;;;21155981;28;20036;-76
2021/03/10 03:30:07;;;;;;;31.00;15.15;;;1.50;99.90;;;;;;21129488;28;20110;-76
2021/03/10 03:40:09;;;;;;;32.78;15.45;;;1.30;99.90;;;;;;21088491;28;20036;-76
2021/03/10 03:50:11;;;;;;;32.28;15.02;;;1.30;99.90;;;;;;21087564;28;20535;-76
2021/03/10 04:00:18;;;;;;;30.17;14.02;;;1.30;99.90;;;;;;21086797;28;20059;-76
2021/03/10 04:10:22;;;;;;;31.45;14.70;;;1.30;99.90;;;;;;21067697;28;20036;-76
2021/03/10 04:20:23;;;;;;;32.63;14.75;;;1.20;99.90;;;;;;21106222;28;20020;-76
2021/03/10 04:30:24;;;;;;;27.58;13.32;;;0.90;99.90;;;;;;21051550;28;20032;-76
2021/03/10 04:40:25;;;;;;;30.65;14.30;;;0.50;99.90;;;;;;21089117;28;20031;-76
2021/03/10 04:50:26;;;;;;;31.52;14.70;;;0.10;99.90;;;;;;21148422;28;20050;-76
2021/03/10 05:00:27;;;;;;;28.70;13.63;;;0.20;99.90;;;;;;21148263;28;20040;-76
2021/03/10 05:10:28;;;;;;;31.55;14.85;;;0.10;99.90;;;;;;21163826;28;20119;-76
2021/03/10 05:20:29;;;;;;;40.35;16.50;;;-0.10;99.90;;;;;;21164633;28;20035;-76
2021/03/10 05:30:29;;;;;;;33.53;15.88;;;-0.30;99.90;;;;;;21163908;28;20110;-76
2021/03/10 05:40:33;;;;;;;41.40;18.52;;;-0.40;99.90;;;;;;21163463;28;20108;-76
2021/03/10 05:50:34;;;;;;;36.00;15.60;;;-0.30;99.90;;;;;;21162463;28;20035;-76
2021/03/10 06:00:35;;;;;;;38.83;15.52;;;-0.20;99.90;;;;;;21143356;28;20509;-76
2021/03/10 06:10:40;;;;;;;34.78;15.68;;;-0.10;99.90;;;;;;21153729;28;20059;-76
2021/03/10 06:20:41;;;;;;;38.30;16.55;;;-0.20;99.90;;;;;;21052345;28;20494;-77
2021/03/10 06:30:44;;;;;;;42.65;18.10;;;-0.10;99.90;;;;;;21056673;28;20050;-77
2021/03/10 06:40:56;;;;;;;33.75;14.95;;;0.20;99.90;;;;;;21059593;28;20043;-76
2021/03/10 06:50:57;;;;;;;31.83;14.70;;;0.70;99.90;;;;;;21059973;28;20500;-77
2021/03/10 07:01:02;;;;;;;34.92;15.93;;;0.80;99.90;;;;;;20982245;28;20082;-76
2021/03/10 07:11:02;;;;;;;37.85;15.90;;;1.30;99.90;;;;;;20989674;28;20069;-77
2021/03/10 07:21:06;;;;;;;32.13;14.90;;;2.10;99.90;;;;;;20989080;28;20103;-77
2021/03/10 07:31:17;;;;;;;32.30;15.07;;;2.70;99.90;;;;;;20988388;28;20123;-78
2021/03/10 07:41:18;;;;;;;31.67;15.32;;;3.40;99.90;;;;;;20970247;28;20102;-78
2021/03/10 07:51:40;;;;;;;33.67;15.10;;;3.90;99.90;;;;;;20987780;28;20025;-77
2021/03/10 08:01:41;;;;;;;27.42;14.38;;;4.40;99.90;;;;;;20998406;28;20058;-77
2021/03/10 08:11:43;;;;;;;29.02;15.00;;;5.20;99.90;;;;;;20984519;28;20101;-77
2021/03/10 08:21:52;;;;;;;33.40;17.10;;;5.60;99.90;;;;;;21001291;28;20032;-76
2021/03/10 08:31:57;;;;;;;34.53;17.33;;;5.80;99.90;;;;;;21000840;28;20121;-78
2021/03/10 08:41:59;;;;;;;28.83;15.93;;;6.20;99.90;;;;;;21000896;28;20036;-77
2021/03/10 08:52:14;;;;;;;34.13;17.35;;;7.10;99.90;;;;;;20992508;28;20094;-77
2021/03/10 09:02:16;;;;;;;38.40;18.67;;;7.20;99.90;;;;;;20978902;28;20445;-77
2021/03/10 09:12:18;;;;;;;40.95;18.40;;;7.00;99.90;;;;;;20997107;28;20056;-77
2021/03/10 09:22:26;;;;;;;44.67;22.38;;;7.50;99.90;;;;;;20978621;28;20041;-77
2021/03/10 09:32:39;;;;;;;37.88;18.63;;;7.40;99.90;;;;;;20977701;28;20395;-77
2021/03/10 09:42:40;;;;;;;42.38;20.20;;;7.70;99.90;;;;;;20976732;28;20067;-77
2021/03/10 09:52:42;;;;;;;41.08;19.95;;;7.90;99.90;;;;;;20959586;28;20032;-77
2021/03/10 10:02:50;;;;;;;41.58;19.30;;;7.90;99.90;;;;;;20975555;28;20458;-77
2021/03/10 10:12:57;;;;;;;39.67;19.77;;;9.10;99.90;;;;;;20974554;28;20395;-77
2021/03/10 10:23:07;;;;;;;233.70;92.77;;;8.50;99.90;;;;;;20973916;28;20032;-77
2021/03/10 10:33:16;;;;;;;90.93;43.83;;;8.70;99.90;;;;;;20973342;28;20029;-77
2021/03/10 10:43:24;;;;;;;315.20;131.98;;;9.00;99.90;;;;;;20972744;28;20509;-77
2021/03/10 10:53:29;;;;;;;21.27;10.75;;;8.70;99.90;;;;;;20972029;28;20035;-77
2021/03/10 11:03:30;;;;;;;29.27;13.90;;;9.10;99.90;;;;;;20975388;28;20115;-78
2021/03/10 11:13:34;;;;;;;29.00;14.02;;;9.70;99.90;;;;;;20992910;28;20032;-78
2021/03/10 11:23:41;;;;;;;35.75;16.35;;;9.80;99.90;;;;;;20983805;28;20031;-78
2021/03/10 11:33:42;;;;;;;29.87;15.87;;;10.60;99.90;;;;;;20995971;28;20028;-78
2021/03/10 11:43:44;;;;;;;27.92;13.45;;;10.90;99.90;;;;;;20995629;28;20032;-77
2021/03/10 11:53:46;;;;;;;19.23;10.10;;;11.90;99.90;;;;;;21018616;28;20040;-77
2021/03/10 12:03:46;;;;;;;20.53;10.53;;;12.90;99.90;;;;;;21003432;28;20036;-77
2021/03/10 12:14:00;;;;;;;21.40;7.38;;;12.70;99.90;;;;;;20974420;28;20036;-76
2021/03/10 12:24:01;;;;;;;14.40;7.78;;;12.00;98.80;;;;;;21021458;28;20546;-77
2021/03/10 12:34:02;;;;;;;17.55;9.80;;;12.30;99.90;;;;;;21027051;28;20028;-77
2021/03/10 12:44:03;;;;;;;15.73;8.18;;;12.20;98.10;;;;;;21022835;28;20033;-77
2021/03/10 12:54:04;;;;;;;18.63;8.97;;;12.40;98.00;;;;;;21003335;28;20081;-77
2021/03/10 13:04:05;;;;;;;16.50;9.57;;;12.00;99.30;;;;;;21006446;28;20029;-77
2021/03/10 13:14:06;;;;;;;19.98;11.38;;;12.10;97.20;;;;;;21022577;28;20112;-77
2021/03/10 13:24:11;;;;;;;22.10;11.63;;;12.30;97.70;;;;;;21003678;28;20032;-77
2021/03/10 13:34:12;;;;;;;21.35;12.07;;;12.20;97.00;;;;;;21025825;28;20119;-77
2021/03/10 13:44:13;;;;;;;20.77;11.75;;;12.90;99.50;;;;;;21025026;28;20469;-77
2021/03/10 13:54:13;;;;;;;24.15;13.05;;;12.70;97.40;;;;;;21009281;28;20036;-77
2021/03/10 14:04:14;;;;;;;24.67;12.27;;;13.30;96.10;;;;;;21027124;28;20047;-77
2021/03/10 14:14:15;;;;;;;23.42;12.10;;;12.90;97.10;;;;;;21026097;28;20036;-77
2021/03/10 14:24:16;;;;;;;25.35;13.18;;;13.00;96.10;;;;;;21046178;28;20047;-78
2021/03/10 14:34:17;;;;;;;22.58;12.57;;;14.00;96.10;;;;;;21123366;28;20027;-77
2021/03/10 14:44:18;;;;;;;22.45;13.40;;;13.90;94.90;;;;;;21094702;28;20036;-77
2021/03/10 14:54:19;;;;;;;24.45;13.10;;;13.10;96.10;;;;;;21078608;28;20091;-78
2021/03/10 15:04:20;;;;;;;24.53;13.23;;;12.80;94.90;;;;;;21073888;28;20400;-78
2021/03/10 15:14:21;;;;;;;22.13;12.10;;;13.20;94.40;;;;;;21108935;28;20032;-76
2021/03/10 15:24:22;;;;;;;19.63;11.73;;;14.20;94.40;;;;;;21161543;28;20028;-77
2021/03/10 15:34:23;;;;;;;21.50;12.43;;;14.70;93.40;;;;;;21150284;28;20047;-76
2021/03/10 15:44:24;;;;;;;21.63;12.40;;;13.90;93.10;;;;;;21127684;28;20035;-77
2021/03/10 15:54:24;;;;;;;22.55;12.80;;;13.20;95.70;;;;;;21149456;28;20032;-77
2021/03/10 16:04:25;;;;;;;23.48;12.98;;;12.40;95.10;;;;;;21167555;28;20031;-77
2021/03/10 16:14:26;;;;;;;21.90;12.60;;;12.30;95.90;;;;;;21168432;28;20036;-79
2021/03/10 16:24:28;;;;;;;25.05;13.90;;;11.70;97.10;;;;;;21190037;28;20032;-77
2021/03/10 16:34:28;;;;;;;24.53;12.77;;;12.00;98.30;;;;;;21181723;28;20028;-79
2021/03/10 16:44:29;;;;;;;27.83;13.48;;;11.30;98.50;;;;;;21175615;28;20427;-77
2021/03/10 16:54:30;;;;;;;25.15;13.73;;;10.90;99.80;;;;;;21163842;28;20420;-79
2021/03/10 17:04:31;;;;;;;23.30;12.60;;;10.80;99.90;;;;;;21157154;28;20060;-77
2021/03/10 17:14:33;;;;;;;25.63;12.73;;;10.50;99.90;;;;;;21156594;28;20031;-77
2021/03/10 17:24:33;;;;;;;20.77;11.00;;;10.40;99.90;;;;;;21179775;28;20023;-77
2021/03/10 17:34:34;;;;;;;29.23;12.60;;;10.20;99.90;;;;;;21172526;28;20030;-77
2021/03/10 17:44:36;;;;;;;25.27;12.20;;;9.20;99.90;;;;;;21081244;28;20039;-76
2021/03/10 17:54:36;;;;;;;28.93;12.77;;;8.50;99.90;;;;;;21014736;28;20053;-76
2021/03/10 18:04:37;;;;;;;25.30;12.80;;;8.00;99.90;;;;;;21080080;28;20030;-76
2021/03/10 18:14:38;;;;;;;28.27;11.67;;;7.90;99.90;;;;;;21126188;28;20027;-77
2021/03/10 18:24:39;;;;;;;25.40;11.93;;;7.80;99.90;;;;;;21111910;28;20108;-77
2021/03/10 18:34:40;;;;;;;28.23;13.97;;;7.70;99.90;;;;;;20961911;28;20048;-77
2021/03/10 18:44:41;;;;;;;23.60;11.97;;;7.20;99.90;;;;;;21038092;28;20043;-78
2021/03/10 18:54:42;;;;;;;27.80;13.73;;;7.20;99.90;;;;;;21100919;28;20028;-77
2021/03/10 19:04:43;;;;;;;26.90;13.43;;;6.90;99.90;;;;;;21070905;28;20036;-77
2021/03/10 19:14:43;;;;;;;29.57;14.73;;;6.20;99.90;;;;;;21057313;28;20458;-77
2021/03/10 19:24:44;;;;;;;38.33;15.27;;;6.00;99.90;;;;;;21001441;28;20048;-76
2021/03/10 19:34:46;;;;;;;29.77;13.83;;;6.00;99.90;;;;;;21069542;28;20572;-77
2021/03/10 19:44:46;;;;;;;26.40;13.43;;;5.50;99.90;;;;;;21071206;28;20032;-77
2021/03/10 19:54:49;;;;;;;21.30;9.67;;;5.40;99.90;;;;;;21015545;28;20062;-77
2021/03/10 20:04:49;;;;;;;29.08;13.98;;;5.50;99.90;;;;;;21139914;28;20035;-77
2021/03/10 20:14:50;;;;;;;28.63;13.03;;;5.40;99.90;;;;;;21105994;28;20517;-77
2021/03/10 20:24:51;;;;;;;22.13;12.03;;;5.40;99.90;;;;;;21042201;28;20031;-77
2021/03/10 20:34:52;;;;;;;20.93;11.23;;;5.60;99.90;;;;;;21059773;28;20032;-78
2021/03/10 20:44:53;;;;;;;24.10;11.30;;;5.60;99.90;;;;;;21085911;28;20108;-77
2021/03/10 20:54:54;;;;;;;23.93;12.43;;;5.40;99.90;;;;;;21083956;28;20359;-78
2021/03/10 21:04:54;;;;;;;24.27;11.83;;;5.40;99.90;;;;;;21062983;28;20028;-77
2021/03/10 21:14:55;;;;;;;24.77;11.07;;;5.60;99.90;;;;;;21076064;28;20039;-77
2021/03/10 21:24:56;;;;;;;21.40;10.30;;;5.30;99.90;;;;;;21099761;28;20036;-77
2021/03/10 21:34:58;;;;;;;23.87;11.43;;;5.40;99.90;;;;;;21078990;28;20028;-78
2021/03/10 21:44:59;;;;;;;;;;;5.50;99.90;;;;;;21109405;28;20035;-78
2021/03/10 21:55:00;;;;;;;22.25;10.75;;;5.50;99.90;;;;;;21108068;28;19912;-79
2021/03/10 22:05:01;;;;;;;18.67;10.20;;;5.40;99.90;;;;;;21107817;28;20038;-78
2021/03/10 22:15:02;;;;;;;23.17;10.47;;;5.50;99.90;;;;;;21098290;28;20032;-78
2021/03/10 22:25:05;;;;;;;21.92;10.60;;;5.40;99.90;;;;;;21077565;28;20048;-78
2021/03/10 22:35:06;;;;;;;19.13;9.13;;;5.30;99.90;;;;;;21092836;28;20037;-77
2021/03/10 22:45:08;;;;;;;19.60;9.95;;;5.30;99.90;;;;;;21074985;28;20085;-78
2021/03/10 22:55:10;;;;;;;21.40;11.48;;;5.50;99.90;;;;;;21099697;28;20039;-78
2021/03/10 23:05:11;;;;;;;23.35;11.05;;;5.20;99.90;;;;;;21081936;28;20486;-77
2021/03/10 23:15:14;;;;;;;25.43;10.60;;;5.00;99.90;;;;;;21077035;28;20498;-77
2021/03/10 23:25:16;;;;;;;16.27;9.23;;;5.10;99.90;;;;;;21071844;28;20043;-78
2021/03/10 23:35:18;;;;;;;21.63;11.07;;;5.30;99.90;;;;;;21077226;28;20115;-79
2021/03/10 23:45:21;;;;;;;18.30;9.82;;;5.30;99.90;;;;;;21106956;28;20044;-78
2021/03/10 23:55:22;;;;;;;24.88;11.70;;;5.10;99.90;;;;;;21118499;28;20035;-78
